Time;durP1;ratioP1;P1;durP2;ratioP2;P2;SDS_P1;SDS_P2;PMS_P1;PMS_P2;Temp;Humidity;BMP_temperature;BMP_pressure;BME280_temperature;BME280_humidity;BME280_pressure;Samples;Min_cycle;Max_cycle;Signal;HPM_P1;HPM_P2
2022/07/16 00:01:50;;;;;;;0.00;0.00;;;;;;;;;;5032040;28;20046;-89
2022/07/16 00:04:16;;;;;;;0.00;0.00;;;;;;;;;;5031616;28;20033;-88
2022/07/16 00:06:43;;;;;;;0.00;0.00;;;;;;;;;;5031962;28;20037;-88
2022/07/16 00:09:09;;;;;;;0.00;0.00;;;;;;;;;;5015410;28;20504;-90
2022/07/16 00:11:35;;;;;;;0.00;0.00;;;;;;;;;;5031971;28;20106;-89
2022/07/16 00:14:01;;;;;;;0.00;0.00;;;;;;;;;;5031876;28;20140;-88
2022/07/16 00:16:27;;;;;;;0.00;0.00;;;;;;;;;;5031872;28;20121;-89
2022/07/16 00:21:38;;;;;;;0.00;0.00;;;;;;;;;;5031761;28;20051;-89
2022/07/16 00:24:06;;;;;;;0.00;0.00;;;;;;;;;;5031941;28;20041;-89
2022/07/16 00:26:32;;;;;;;0.00;0.00;;;;;;;;;;5015454;28;20041;-89
2022/07/16 00:28:58;;;;;;;0.00;0.00;;;;;;;;;;5031780;28;20041;-89
2022/07/16 00:31:24;;;;;;;0.00;0.00;;;;;;;;;;5031903;28;20466;-90
2022/07/16 00:33:50;;;;;;;0.00;0.00;;;;;;;;;;5031410;28;20107;-87
2022/07/16 00:36:16;;;;;;;0.00;0.00;;;;;;;;;;5031690;28;20047;-88
2022/07/16 00:38:42;;;;;;;0.00;0.00;;;;;;;;;;5031491;28;20163;-88
2022/07/16 00:41:16;;;;;;;0.00;0.00;;;;;;;;;;5032908;28;20088;-88
2022/07/16 00:43:47;;;;;;;0.00;0.00;;;;;;;;;;5031583;28;20500;-89
2022/07/16 00:46:13;;;;;;;0.10;0.00;;;;;;;;;;5031789;28;20049;-88
2022/07/16 00:48:39;;;;;;;0.00;0.00;;;;;;;;;;5015633;28;20057;-89
2022/07/16 00:51:06;;;;;;;0.00;0.00;;;;;;;;;;5032213;28;20041;-89
2022/07/16 00:53:33;;;;;;;0.00;0.00;;;;;;;;;;5031838;28;20052;-87
2022/07/16 00:55:59;;;;;;;0.00;0.00;;;;;;;;;;5031376;28;20553;-89
2022/07/16 00:58:25;;;;;;;0.00;0.00;;;;;;;;;;5031176;28;20128;-88
2022/07/16 01:00:51;;;;;;;0.00;0.00;;;;;;;;;;5031133;28;20041;-88
2022/07/16 01:03:17;;;;;;;0.00;0.00;;;;;;;;;;5031229;28;20045;-86
2022/07/16 01:05:43;;;;;;;0.00;0.00;;;;;;;;;;5031592;28;20038;-88
2022/07/16 01:08:09;;;;;;;0.00;0.00;;;;;;;;;;5030949;28;20116;-89
2022/07/16 01:10:35;;;;;;;0.00;0.00;;;;;;;;;;5031102;28;20140;-89
2022/07/16 01:13:01;;;;;;;0.00;0.00;;;;;;;;;;5031002;28;20485;-87
2022/07/16 01:15:27;;;;;;;0.00;0.00;;;;;;;;;;5031115;28;20128;-89
2022/07/16 01:17:53;;;;;;;0.00;0.00;;;;;;;;;;5030883;28;20081;-88
2022/07/16 01:20:19;;;;;;;0.03;0.00;;;;;;;;;;5030652;28;20124;-87
2022/07/16 01:22:46;;;;;;;0.00;0.00;;;;;;;;;;5031237;28;20213;-89
2022/07/16 01:25:12;;;;;;;0.00;0.00;;;;;;;;;;5030807;28;20455;-89
2022/07/16 01:27:39;;;;;;;0.00;0.00;;;;;;;;;;5031113;28;20049;-88
2022/07/16 01:30:08;;;;;;;0.00;0.00;;;;;;;;;;5030860;28;20361;-89
2022/07/16 01:32:35;;;;;;;0.00;0.00;;;;;;;;;;5031077;28;20044;-88
2022/07/16 01:35:02;;;;;;;0.00;0.00;;;;;;;;;;5030953;28;20424;-88
2022/07/16 01:37:28;;;;;;;0.00;0.00;;;;;;;;;;5014756;28;20038;-89
2022/07/16 01:39:54;;;;;;;0.00;0.00;;;;;;;;;;5030513;28;20050;-88
2022/07/16 01:42:20;;;;;;;0.00;0.00;;;;;;;;;;5030782;28;20042;-89
2022/07/16 01:44:46;;;;;;;0.00;0.00;;;;;;;;;;5030526;28;20503;-88
2022/07/16 01:47:13;;;;;;;0.00;0.00;;;;;;;;;;5030910;28;20049;-87
2022/07/16 01:49:39;;;;;;;0.00;0.00;;;;;;;;;;5030394;28;20485;-87
2022/07/16 01:52:06;;;;;;;0.00;0.00;;;;;;;;;;5030645;28;20060;-88
2022/07/16 01:54:32;;;;;;;0.00;0.00;;;;;;;;;;5030347;28;20041;-88
2022/07/16 01:56:58;;;;;;;0.00;0.00;;;;;;;;;;5030929;28;20099;-88
2022/07/16 01:59:24;;;;;;;0.00;0.00;;;;;;;;;;5030395;28;20065;-88
2022/07/16 02:01:50;;;;;;;0.00;0.00;;;;;;;;;;5030393;28;20121;-86
2022/07/16 02:04:16;;;;;;;0.00;0.00;;;;;;;;;;5030353;28;20068;-88
2022/07/16 02:06:42;;;;;;;0.00;0.00;;;;;;;;;;5030428;28;20045;-87
2022/07/16 02:09:08;;;;;;;0.00;0.00;;;;;;;;;;5030349;28;20041;-87
2022/07/16 02:11:34;;;;;;;0.00;0.00;;;;;;;;;;5030255;28;20128;-89
2022/07/16 02:14:00;;;;;;;0.00;0.00;;;;;;;;;;5029904;28;20053;-88
2022/07/16 02:16:26;;;;;;;0.00;0.00;;;;;;;;;;5030847;28;20416;-88
2022/07/16 02:18:52;;;;;;;0.00;0.00;;;;;;;;;;5030152;28;20080;-88
2022/07/16 02:21:18;;;;;;;0.00;0.00;;;;;;;;;;5030329;28;20041;-89
2022/07/16 02:23:44;;;;;;;0.00;0.00;;;;;;;;;;5030323;28;20451;-88
2022/07/16 02:26:10;;;;;;;0.00;0.00;;;;;;;;;;5030540;28;20044;-88
2022/07/16 02:28:36;;;;;;;0.00;0.00;;;;;;;;;;5031899;28;20063;-87
2022/07/16 02:31:02;;;;;;;0.00;0.00;;;;;;;;;;5033465;28;20492;-88
2022/07/16 02:33:28;;;;;;;0.20;0.05;;;;;;;;;;5033749;28;20072;-89
2022/07/16 02:35:54;;;;;;;0.00;0.00;;;;;;;;;;5033648;28;20555;-88
2022/07/16 02:38:20;;;;;;;0.00;0.00;;;;;;;;;;5033810;28;20045;-89
2022/07/16 02:40:46;;;;;;;0.00;0.00;;;;;;;;;;5033451;28;20159;-89
2022/07/16 02:43:12;;;;;;;0.00;0.00;;;;;;;;;;5033840;28;20400;-88
2022/07/16 02:45:39;;;;;;;0.00;0.00;;;;;;;;;;5033342;28;20037;-88
2022/07/16 02:48:06;;;;;;;0.00;0.00;;;;;;;;;;5033680;28;20037;-88
2022/07/16 02:50:32;;;;;;;0.00;0.00;;;;;;;;;;5033222;28;20045;-87
2022/07/16 02:52:58;;;;;;;0.00;0.00;;;;;;;;;;5033676;28;20489;-88
2022/07/16 02:55:24;;;;;;;0.00;0.00;;;;;;;;;;5033216;28;20128;-87
2022/07/16 02:57:50;;;;;;;0.00;0.00;;;;;;;;;;5033273;28;20048;-88
2022/07/16 03:00:17;;;;;;;0.00;0.00;;;;;;;;;;5033202;28;20439;-87
2022/07/16 03:02:43;;;;;;;0.00;0.00;;;;;;;;;;5033319;28;20119;-87
2022/07/16 03:05:10;;;;;;;0.00;0.00;;;;;;;;;;5032946;28;20090;-87
2022/07/16 03:07:36;;;;;;;0.00;0.00;;;;;;;;;;5033207;28;20410;-88
2022/07/16 03:10:02;;;;;;;0.00;0.00;;;;;;;;;;5032836;28;20443;-88
2022/07/16 03:12:28;;;;;;;0.00;0.00;;;;;;;;;;5033045;28;20457;-87
2022/07/16 03:14:54;;;;;;;0.00;0.00;;;;;;;;;;5032888;28;20056;-86
2022/07/16 03:17:20;;;;;;;0.00;0.00;;;;;;;;;;5032818;28;20049;-87
2022/07/16 03:19:46;;;;;;;0.00;0.00;;;;;;;;;;5032297;28;20045;-87
2022/07/16 03:22:12;;;;;;;0.00;0.00;;;;;;;;;;5032767;28;20041;-88
2022/07/16 03:24:38;;;;;;;0.00;0.00;;;;;;;;;;5032642;28;20037;-88
2022/07/16 03:27:04;;;;;;;0.00;0.00;;;;;;;;;;5032768;28;20114;-88
2022/07/16 03:29:30;;;;;;;0.00;0.00;;;;;;;;;;5032496;28;20045;-85
2022/07/16 03:31:56;;;;;;;0.00;0.00;;;;;;;;;;5032579;28;20045;-87
2022/07/16 03:34:22;;;;;;;0.00;0.00;;;;;;;;;;5032559;28;20405;-89
2022/07/16 03:36:48;;;;;;;0.00;0.00;;;;;;;;;;5032374;28;20049;-88
2022/07/16 03:39:14;;;;;;;0.00;0.00;;;;;;;;;;5031826;28;20060;-88
2022/07/16 03:41:40;;;;;;;0.00;0.00;;;;;;;;;;5031884;28;20039;-86
2022/07/16 03:44:08;;;;;;;0.00;0.00;;;;;;;;;;5033706;28;20397;-87
2022/07/16 03:46:35;;;;;;;0.00;0.00;;;;;;;;;;5032206;28;20071;-87
2022/07/16 03:49:01;;;;;;;0.00;0.00;;;;;;;;;;5032332;28;20076;-87
2022/07/16 03:51:27;;;;;;;0.00;0.00;;;;;;;;;;5032328;28;20485;-87
2022/07/16 03:53:53;;;;;;;0.00;0.00;;;;;;;;;;5032558;28;20143;-88
2022/07/16 03:56:19;;;;;;;0.00;0.00;;;;;;;;;;5032177;28;20132;-87
2022/07/16 03:58:45;;;;;;;0.00;0.00;;;;;;;;;;5032162;28;20476;-86
2022/07/16 04:01:11;;;;;;;0.00;0.00;;;;;;;;;;5031870;28;20151;-89
2022/07/16 04:03:38;;;;;;;0.00;0.00;;;;;;;;;;5032000;28;20484;-88
2022/07/16 04:06:04;;;;;;;0.00;0.00;;;;;;;;;;5032143;28;20041;-88
2022/07/16 04:08:30;;;;;;;0.00;0.00;;;;;;;;;;5032205;28;20037;-88
2022/07/16 04:10:56;;;;;;;0.00;0.00;;;;;;;;;;5031643;28;20107;-88
2022/07/16 04:13:22;;;;;;;0.00;0.00;;;;;;;;;;5031862;28;20057;-87
2022/07/16 04:15:48;;;;;;;0.00;0.00;;;;;;;;;;5031618;28;20156;-88
2022/07/16 04:18:15;;;;;;;0.00;0.00;;;;;;;;;;5031890;28;20402;-88
2022/07/16 04:20:41;;;;;;;0.00;0.00;;;;;;;;;;5031486;28;20458;-87
2022/07/16 04:23:07;;;;;;;0.00;0.00;;;;;;;;;;5032011;28;20187;-88
2022/07/16 04:25:33;;;;;;;0.00;0.00;;;;;;;;;;5031957;28;20044;-87
2022/07/16 04:27:59;;;;;;;0.00;0.00;;;;;;;;;;5031517;28;20037;-87
2022/07/16 04:30:25;;;;;;;0.00;0.00;;;;;;;;;;5031524;28;20128;-88
2022/07/16 04:32:51;;;;;;;0.00;0.00;;;;;;;;;;5031671;28;20479;-87
2022/07/16 04:35:17;;;;;;;0.00;0.00;;;;;;;;;;5032471;28;20124;-90
2022/07/16 04:37:44;;;;;;;0.00;0.00;;;;;;;;;;5031511;28;20072;-89
2022/07/16 04:40:11;;;;;;;0.00;0.00;;;;;;;;;;5031358;28;20080;-89
2022/07/16 04:42:37;;;;;;;0.00;0.00;;;;;;;;;;5031669;28;20037;-90
2022/07/16 04:45:04;;;;;;;0.00;0.00;;;;;;;;;;5031718;28;20113;-92
2022/07/16 04:47:30;;;;;;;0.00;0.00;;;;;;;;;;5031876;28;20092;-87
2022/07/16 04:49:56;;;;;;;0.00;0.00;;;;;;;;;;5031193;28;20477;-88
2022/07/16 04:52:22;;;;;;;0.00;0.00;;;;;;;;;;5030706;28;20056;-89
2022/07/16 04:54:48;;;;;;;0.00;0.00;;;;;;;;;;5031191;28;20038;-88
2022/07/16 04:57:13;;;;;;;0.00;0.00;;;;;;;;;;5030988;28;20045;-86
2022/07/16 04:59:39;;;;;;;0.00;0.00;;;;;;;;;;5031447;28;20099;-87
2022/07/16 05:04:50;;;;;;;0.00;0.00;;;;;;;;;;5031133;28;20057;-87
2022/07/16 05:07:16;;;;;;;0.00;0.00;;;;;;;;;;5030863;28;20045;-87
2022/07/16 05:09:42;;;;;;;0.00;0.00;;;;;;;;;;5031524;28;20049;-87
2022/07/16 05:12:08;;;;;;;0.00;0.00;;;;;;;;;;5031010;28;20068;-88
2022/07/16 05:14:34;;;;;;;0.00;0.00;;;;;;;;;;5030905;28;20052;-88
2022/07/16 05:17:00;;;;;;;0.00;0.00;;;;;;;;;;5030911;28;20053;-86
2022/07/16 05:19:26;;;;;;;0.00;0.00;;;;;;;;;;5031222;28;20037;-87
2022/07/16 05:21:52;;;;;;;0.00;0.00;;;;;;;;;;5030610;28;20077;-87
2022/07/16 05:24:18;;;;;;;0.00;0.00;;;;;;;;;;5031032;28;20126;-86
2022/07/16 05:26:44;;;;;;;0.00;0.00;;;;;;;;;;5030746;28;20140;-86
2022/07/16 05:29:10;;;;;;;0.00;0.00;;;;;;;;;;5031457;28;20037;-87
2022/07/16 05:31:36;;;;;;;0.00;0.00;;;;;;;;;;5030602;28;20056;-87
2022/07/16 05:34:02;;;;;;;0.00;0.00;;;;;;;;;;5031285;28;20143;-87
2022/07/16 05:36:28;;;;;;;0.00;0.00;;;;;;;;;;5030708;28;20049;-88
2022/07/16 05:38:54;;;;;;;0.00;0.00;;;;;;;;;;5032119;28;20044;-87
2022/07/16 05:41:20;;;;;;;0.00;0.00;;;;;;;;;;5031059;28;20042;-86
2022/07/16 05:43:46;;;;;;;0.00;0.00;;;;;;;;;;5030857;28;20489;-86
2022/07/16 05:46:12;;;;;;;0.00;0.00;;;;;;;;;;5030857;28;20041;-85
2022/07/16 05:48:38;;;;;;;0.00;0.00;;;;;;;;;;5031015;28;20099;-86
2022/07/16 05:51:04;;;;;;;0.00;0.00;;;;;;;;;;5030702;28;20132;-88
2022/07/16 05:53:30;;;;;;;0.00;0.00;;;;;;;;;;5030880;28;20052;-86
2022/07/16 05:55:56;;;;;;;0.00;0.00;;;;;;;;;;5030917;28;20045;-85
2022/07/16 05:58:22;;;;;;;0.00;0.00;;;;;;;;;;5030943;28;20099;-86
2022/07/16 06:00:48;;;;;;;0.00;0.00;;;;;;;;;;5030826;28;20404;-85
2022/07/16 06:03:14;;;;;;;0.00;0.00;;;;;;;;;;5031685;28;20068;-86
2022/07/16 06:05:40;;;;;;;0.00;0.00;;;;;;;;;;5036253;28;20107;-86
2022/07/16 06:08:06;;;;;;;0.00;0.00;;;;;;;;;;5035418;28;20043;-87
2022/07/16 06:10:32;;;;;;;0.00;0.00;;;;;;;;;;5036041;28;20049;-88
2022/07/16 06:12:58;;;;;;;0.00;0.00;;;;;;;;;;5036298;28;20060;-86
2022/07/16 06:15:24;;;;;;;0.00;0.00;;;;;;;;;;5034763;28;20045;-85
2022/07/16 06:17:50;;;;;;;0.00;0.00;;;;;;;;;;5034127;28;20045;-87
2022/07/16 06:20:16;;;;;;;0.00;0.00;;;;;;;;;;5034530;28;20041;-86
2022/07/16 06:22:42;;;;;;;0.00;0.00;;;;;;;;;;5006126;28;20157;-85
2022/07/16 06:25:08;;;;;;;0.00;0.00;;;;;;;;;;4997831;28;20507;-87
2022/07/16 06:27:34;;;;;;;0.00;0.00;;;;;;;;;;4997397;28;20041;-87
2022/07/16 06:30:04;;;;;;;0.00;0.00;;;;;;;;;;4997903;28;20042;-85
2022/07/16 06:32:30;;;;;;;0.00;0.00;;;;;;;;;;4997018;28;20045;-86
2022/07/16 06:34:56;;;;;;;0.10;0.10;;;;;;;;;;4980987;28;20037;-85
2022/07/16 06:37:22;;;;;;;0.00;0.00;;;;;;;;;;4997066;28;20184;-88
2022/07/16 06:39:48;;;;;;;0.00;0.00;;;;;;;;;;4996922;28;20038;-85
2022/07/16 06:42:14;;;;;;;0.10;0.00;;;;;;;;;;4981096;28;20037;-85
2022/07/16 06:44:41;;;;;;;0.00;0.00;;;;;;;;;;5014843;28;20046;-87
2022/07/16 06:47:07;;;;;;;0.00;0.00;;;;;;;;;;4996710;28;20046;-86
2022/07/16 06:49:33;;;;;;;0.00;0.00;;;;;;;;;;5033502;28;20427;-86
2022/07/16 06:51:59;;;;;;;0.00;0.00;;;;;;;;;;5016407;28;20092;-86
2022/07/16 06:54:25;;;;;;;0.00;0.00;;;;;;;;;;5016641;28;20049;-85
2022/07/16 06:56:51;;;;;;;0.00;0.00;;;;;;;;;;5008725;28;20046;-86
2022/07/16 06:59:17;;;;;;;0.00;0.00;;;;;;;;;;4996906;28;20074;-86
2022/07/16 07:01:43;;;;;;;0.00;0.00;;;;;;;;;;4980418;28;20132;-85
2022/07/16 07:04:09;;;;;;;0.00;0.00;;;;;;;;;;4996808;28;20033;-84
2022/07/16 07:06:35;;;;;;;0.00;0.00;;;;;;;;;;4996767;28;20038;-86
2022/07/16 07:09:01;;;;;;;0.00;0.00;;;;;;;;;;4981103;28;20046;-87
2022/07/16 07:11:27;;;;;;;0.00;0.00;;;;;;;;;;4998630;28;20188;-85
2022/07/16 07:13:53;;;;;;;0.00;0.00;;;;;;;;;;5032178;28;20061;-86
2022/07/16 07:16:19;;;;;;;0.00;0.00;;;;;;;;;;5032979;28;20081;-86
2022/07/16 07:18:46;;;;;;;0.00;0.00;;;;;;;;;;5032727;28;20099;-85
2022/07/16 07:21:12;;;;;;;0.00;0.00;;;;;;;;;;5032979;28;20037;-86
2022/07/16 07:23:38;;;;;;;0.00;0.00;;;;;;;;;;5034222;28;20038;-86
2022/07/16 07:26:04;;;;;;;0.00;0.00;;;;;;;;;;5034783;28;20389;-86
2022/07/16 07:28:30;;;;;;;0.00;0.00;;;;;;;;;;5032650;28;20426;-87
2022/07/16 07:30:56;;;;;;;0.00;0.00;;;;;;;;;;5032754;28;20346;-86
2022/07/16 07:33:23;;;;;;;0.00;0.00;;;;;;;;;;5032773;28;20129;-86
2022/07/16 07:35:49;;;;;;;0.00;0.00;;;;;;;;;;5032830;28;20041;-88
2022/07/16 07:38:15;;;;;;;0.00;0.00;;;;;;;;;;5032435;28;20073;-87
2022/07/16 07:40:42;;;;;;;0.00;0.00;;;;;;;;;;5033913;28;20110;-86
2022/07/16 07:43:08;;;;;;;0.00;0.00;;;;;;;;;;5032194;28;20044;-85
2022/07/16 07:45:34;;;;;;;0.00;0.00;;;;;;;;;;5032684;28;20416;-86
2022/07/16 07:48:00;;;;;;;0.00;0.00;;;;;;;;;;5032278;28;20045;-86
2022/07/16 07:50:26;;;;;;;0.00;0.00;;;;;;;;;;5032292;28;20389;-87
2022/07/16 07:52:52;;;;;;;0.00;0.00;;;;;;;;;;5032130;28;20045;-85
2022/07/16 07:55:19;;;;;;;0.00;0.00;;;;;;;;;;5032478;28;20042;-86
2022/07/16 07:57:45;;;;;;;0.00;0.00;;;;;;;;;;5032341;28;20128;-87
2022/07/16 08:00:11;;;;;;;0.00;0.00;;;;;;;;;;5032753;28;20108;-87
2022/07/16 08:02:37;;;;;;;0.00;0.00;;;;;;;;;;5032413;28;20091;-86
2022/07/16 08:05:03;;;;;;;0.00;0.00;;;;;;;;;;5035015;28;20041;-92
2022/07/16 08:07:29;;;;;;;0.00;0.00;;;;;;;;;;5032001;28;20099;-86
2022/07/16 08:09:55;;;;;;;0.00;0.00;;;;;;;;;;5032414;28;20431;-87
2022/07/16 08:12:21;;;;;;;0.00;0.00;;;;;;;;;;5031811;28;20052;-86
2022/07/16 08:14:47;;;;;;;0.00;0.00;;;;;;;;;;5032180;28;20113;-90
2022/07/16 08:17:13;;;;;;;0.00;0.00;;;;;;;;;;5035046;28;20041;-90
2022/07/16 08:19:39;;;;;;;0.00;0.00;;;;;;;;;;5035290;28;20049;-86
2022/07/16 08:22:05;;;;;;;0.00;0.00;;;;;;;;;;5031571;28;20428;-86
2022/07/16 08:27:16;;;;;;;0.00;0.00;;;;;;;;;;5030932;28;20042;-85
2022/07/16 08:29:42;;;;;;;0.00;0.00;;;;;;;;;;5031426;28;20049;-86
2022/07/16 08:32:09;;;;;;;0.00;0.00;;;;;;;;;;5031814;28;20049;-86
2022/07/16 08:34:35;;;;;;;0.00;0.00;;;;;;;;;;5031686;28;20072;-85
2022/07/16 08:37:01;;;;;;;0.00;0.00;;;;;;;;;;5031563;28;20446;-86
2022/07/16 08:39:27;;;;;;;0.00;0.00;;;;;;;;;;5031165;28;20046;-86
2022/07/16 08:41:53;;;;;;;0.00;0.00;;;;;;;;;;5031209;28;20053;-86
2022/07/16 08:44:19;;;;;;;0.00;0.00;;;;;;;;;;5031411;28;20129;-86
2022/07/16 08:46:46;;;;;;;0.00;0.00;;;;;;;;;;5031305;28;20121;-86
2022/07/16 08:49:12;;;;;;;0.00;0.00;;;;;;;;;;5031156;28;20405;-85
2022/07/16 08:51:39;;;;;;;0.00;0.00;;;;;;;;;;5031543;28;20045;-84
2022/07/16 08:54:08;;;;;;;0.00;0.00;;;;;;;;;;5030922;28;20377;-86
2022/07/16 08:56:35;;;;;;;0.00;0.00;;;;;;;;;;5031190;28;20037;-85
2022/07/16 08:59:01;;;;;;;0.00;0.00;;;;;;;;;;5031053;28;20171;-85
2022/07/16 09:01:29;;;;;;;0.00;0.00;;;;;;;;;;5030972;28;20046;-85
2022/07/16 09:03:59;;;;;;;0.00;0.00;;;;;;;;;;5031277;28;20041;-87
2022/07/16 09:06:26;;;;;;;0.00;0.00;;;;;;;;;;5031260;28;20080;-85
2022/07/16 09:08:52;;;;;;;0.00;0.00;;;;;;;;;;5031122;28;20381;-85
2022/07/16 09:11:19;;;;;;;0.00;0.00;;;;;;;;;;5031080;28;20092;-85
2022/07/16 09:14:06;;;;;;;0.00;0.00;;;;;;;;;;5030706;28;20049;-86
2022/07/16 09:16:34;;;;;;;0.00;0.00;;;;;;;;;;5030689;28;20045;-86
2022/07/16 09:19:04;;;;;;;0.00;0.00;;;;;;;;;;5032173;28;20381;-84
2022/07/16 09:21:30;;;;;;;0.00;0.00;;;;;;;;;;5030785;28;20120;-85
2022/07/16 09:23:56;;;;;;;0.00;0.00;;;;;;;;;;5031147;28;20045;-84
2022/07/16 09:26:23;;;;;;;0.00;0.00;;;;;;;;;;5031069;28;20051;-86
2022/07/16 09:28:50;;;;;;;0.00;0.00;;;;;;;;;;5030669;28;20110;-85
2022/07/16 09:31:40;;;;;;;0.00;0.00;;;;;;;;;;5030684;28;20047;-86
2022/07/16 09:34:06;;;;;;;0.00;0.00;;;;;;;;;;5031031;28;20045;-88
2022/07/16 09:36:33;;;;;;;0.55;0.38;;;;;;;;;;5032687;28;20128;-87
2022/07/16 09:38:59;;;;;;;0.00;0.00;;;;;;;;;;5033510;28;20069;-86
2022/07/16 09:41:25;;;;;;;0.00;0.00;;;;;;;;;;5034540;28;20057;-87
2022/07/16 09:43:51;;;;;;;0.00;0.00;;;;;;;;;;5035968;28;20124;-87
2022/07/16 09:46:19;;;;;;;0.00;0.00;;;;;;;;;;5034465;28;20045;-87
2022/07/16 09:48:45;;;;;;;0.00;0.00;;;;;;;;;;5034555;28;20079;-87
2022/07/16 09:51:19;;;;;;;0.00;0.00;;;;;;;;;;5034544;28;20045;-87
2022/07/16 09:53:47;;;;;;;0.00;0.00;;;;;;;;;;5034546;28;20456;-87
2022/07/16 09:56:18;;;;;;;0.00;0.00;;;;;;;;;;5034652;28;20512;-86
2022/07/16 09:58:49;;;;;;;0.00;0.00;;;;;;;;;;5034157;28;20045;-87
2022/07/16 10:01:16;;;;;;;0.00;0.00;;;;;;;;;;5034092;28;20049;-88
2022/07/16 10:03:42;;;;;;;0.00;0.00;;;;;;;;;;5034199;28;20069;-87
2022/07/16 10:06:11;;;;;;;0.00;0.00;;;;;;;;;;5035016;28;20069;-87
2022/07/16 10:08:38;;;;;;;0.00;0.00;;;;;;;;;;5034627;28;20041;-86
2022/07/16 10:11:04;;;;;;;0.00;0.00;;;;;;;;;;5034841;28;20514;-85
2022/07/16 10:13:31;;;;;;;0.00;0.00;;;;;;;;;;5034383;28;20497;-88
2022/07/16 10:15:57;;;;;;;0.00;0.00;;;;;;;;;;5034860;28;20057;-85
2022/07/16 10:18:39;;;;;;;0.00;0.00;;;;;;;;;;5034762;28;20508;-86
2022/07/16 10:21:09;;;;;;;0.00;0.00;;;;;;;;;;5034598;28;20096;-86
2022/07/16 10:23:36;;;;;;;0.00;0.00;;;;;;;;;;5034267;28;20128;-86
2022/07/16 10:26:10;;;;;;;0.00;0.00;;;;;;;;;;5034557;28;20467;-89
2022/07/16 10:28:37;;;;;;;0.00;0.00;;;;;;;;;;5035848;28;20037;-87
2022/07/16 10:31:36;;;;;;;0.00;0.00;;;;;;;;;;5034376;28;20493;-87
2022/07/16 10:34:31;;;;;;;0.00;0.00;;;;;;;;;;4981614;28;20399;-87
2022/07/16 10:36:57;;;;;;;0.00;0.00;;;;;;;;;;5034220;28;20045;-87
2022/07/16 10:39:25;;;;;;;0.00;0.00;;;;;;;;;;5034031;28;20069;-87
2022/07/16 10:41:52;;;;;;;0.00;0.00;;;;;;;;;;5033994;28;20068;-88
2022/07/16 10:44:19;;;;;;;0.00;0.00;;;;;;;;;;5033915;28;20049;-86
2022/07/16 10:46:52;;;;;;;0.00;0.00;;;;;;;;;;5034069;28;20064;-87
2022/07/16 10:49:18;;;;;;;0.00;0.00;;;;;;;;;;5026091;28;20497;-89
2022/07/16 10:51:58;;;;;;;0.00;0.00;;;;;;;;;;5033894;28;20489;-88
2022/07/16 10:54:25;;;;;;;0.00;0.00;;;;;;;;;;5035086;28;20052;-87
2022/07/16 10:56:51;;;;;;;0.00;0.00;;;;;;;;;;5033872;28;20043;-85
2022/07/16 10:59:41;;;;;;;0.00;0.00;;;;;;;;;;5033607;28;20045;-88
2022/07/16 11:02:08;;;;;;;0.10;0.10;;;;;;;;;;5008352;28;20057;-87
2022/07/16 11:04:38;;;;;;;0.00;0.00;;;;;;;;;;5035038;28;20041;-87
2022/07/16 11:07:07;;;;;;;0.00;0.00;;;;;;;;;;5033862;28;20052;-86
2022/07/16 11:09:34;;;;;;;0.00;0.00;;;;;;;;;;5033997;28;20055;-88
2022/07/16 11:12:11;;;;;;;0.00;0.00;;;;;;;;;;5034514;28;20041;-83
2022/07/16 11:14:38;;;;;;;0.05;0.00;;;;;;;;;;5032284;28;20072;-87
2022/07/16 11:17:04;;;;;;;0.00;0.00;;;;;;;;;;5033676;28;20045;-86
2022/07/16 11:19:30;;;;;;;0.00;0.00;;;;;;;;;;5033910;28;20044;-88
2022/07/16 11:21:57;;;;;;;0.00;0.00;;;;;;;;;;5033403;28;20049;-87
2022/07/16 11:24:24;;;;;;;0.00;0.00;;;;;;;;;;5033363;28;20042;-87
2022/07/16 11:26:51;;;;;;;0.00;0.00;;;;;;;;;;5033534;28;20045;-89
2022/07/16 11:29:18;;;;;;;0.00;0.00;;;;;;;;;;5033742;28;20041;-87
2022/07/16 11:31:44;;;;;;;0.00;0.00;;;;;;;;;;5034208;28;20485;-87
2022/07/16 11:34:11;;;;;;;0.00;0.00;;;;;;;;;;5032769;28;20055;-88
2022/07/16 11:36:44;;;;;;;0.00;0.00;;;;;;;;;;5033494;28;20496;-88
2022/07/16 11:39:11;;;;;;;0.00;0.00;;;;;;;;;;5033575;28;20045;-86
2022/07/16 11:41:39;;;;;;;0.00;0.00;;;;;;;;;;5032856;28;20052;-88
2022/07/16 11:44:15;;;;;;;0.00;0.00;;;;;;;;;;5033482;28;20042;-88
2022/07/16 11:46:52;;;;;;;0.00;0.00;;;;;;;;;;5033324;28;20049;-87
2022/07/16 11:49:22;;;;;;;0.00;0.00;;;;;;;;;;5033354;28;20125;-88
2022/07/16 11:51:48;;;;;;;0.00;0.00;;;;;;;;;;5032906;28;20048;-91
2022/07/16 11:54:14;;;;;;;0.00;0.00;;;;;;;;;;5035098;28;20049;-91
2022/07/16 11:56:41;;;;;;;0.00;0.00;;;;;;;;;;5043159;28;20100;-91
2022/07/16 11:59:26;;;;;;;0.00;0.00;;;;;;;;;;5033343;28;20051;-86
2022/07/16 12:02:01;;;;;;;0.00;0.00;;;;;;;;;;5032561;28;20046;-87
2022/07/16 12:04:31;;;;;;;0.00;0.00;;;;;;;;;;5033018;28;20049;-89
2022/07/16 12:06:57;;;;;;;0.00;0.00;;;;;;;;;;5032582;28;20041;-88
2022/07/16 12:09:30;;;;;;;0.00;0.00;;;;;;;;;;5033109;28;20087;-88
2022/07/16 12:12:00;;;;;;;0.00;0.00;;;;;;;;;;5032467;28;20132;-89
2022/07/16 12:14:45;;;;;;;0.00;0.00;;;;;;;;;;5032435;28;20443;-88
2022/07/16 12:17:37;;;;;;;0.00;0.00;;;;;;;;;;5032262;28;20041;-87
2022/07/16 12:20:03;;;;;;;0.00;0.00;;;;;;;;;;5029734;28;20045;-88
2022/07/16 12:22:45;;;;;;;0.00;0.00;;;;;;;;;;5033722;28;20048;-88
2022/07/16 12:25:32;;;;;;;0.00;0.00;;;;;;;;;;5032111;28;20038;-89
2022/07/16 12:28:03;;;;;;;0.00;0.00;;;;;;;;;;5032394;28;20045;-89
2022/07/16 12:30:30;;;;;;;0.00;0.00;;;;;;;;;;5032023;28;20132;-89
2022/07/16 12:32:56;;;;;;;0.00;0.00;;;;;;;;;;5032222;28;20464;-89
2022/07/16 12:35:35;;;;;;;0.00;0.00;;;;;;;;;;5031765;28;20051;-87
2022/07/16 12:38:01;;;;;;;0.00;0.00;;;;;;;;;;5035292;28;20045;-89
2022/07/16 12:40:27;;;;;;;0.00;0.00;;;;;;;;;;5031308;28;20061;-86
2022/07/16 12:42:53;;;;;;;0.00;0.00;;;;;;;;;;5032024;28;20049;-86
2022/07/16 12:45:19;;;;;;;0.10;0.00;;;;;;;;;;5031941;28;20136;-86
2022/07/16 12:47:45;;;;;;;0.00;0.00;;;;;;;;;;5032026;28;20469;-87
2022/07/16 12:50:11;;;;;;;0.00;0.00;;;;;;;;;;5031852;28;20076;-86
2022/07/16 12:52:37;;;;;;;0.00;0.00;;;;;;;;;;5032022;28;20096;-86
2022/07/16 13:00:35;;;;;;;0.00;0.00;;;;;;;;;;5032812;28;20049;-86
2022/07/16 13:03:02;;;;;;;0.00;0.00;;;;;;;;;;5032068;28;20136;-87
2022/07/16 13:05:28;;;;;;;0.00;0.00;;;;;;;;;;5031650;28;20042;-86
2022/07/16 13:07:55;;;;;;;0.00;0.00;;;;;;;;;;5032156;28;20110;-87
2022/07/16 13:10:21;;;;;;;0.00;0.00;;;;;;;;;;5032914;28;20189;-87
2022/07/16 13:12:47;;;;;;;0.00;0.00;;;;;;;;;;5030950;28;20508;-86
2022/07/16 13:15:16;;;;;;;0.00;0.00;;;;;;;;;;5031864;28;20500;-86
2022/07/16 13:17:43;;;;;;;0.00;0.00;;;;;;;;;;5015247;28;20052;-86
2022/07/16 13:20:09;;;;;;;0.00;0.00;;;;;;;;;;5031707;28;20431;-86
2022/07/16 13:22:35;;;;;;;0.00;0.00;;;;;;;;;;5031640;28;20049;-85
2022/07/16 13:25:01;;;;;;;0.00;0.00;;;;;;;;;;5031642;28;20048;-87
2022/07/16 13:27:27;;;;;;;0.00;0.00;;;;;;;;;;5032726;28;20033;-85
2022/07/16 13:29:53;;;;;;;0.00;0.00;;;;;;;;;;5032725;28;20531;-85
2022/07/16 13:32:19;;;;;;;0.00;0.00;;;;;;;;;;5031307;28;20076;-87
2022/07/16 13:34:45;;;;;;;0.00;0.00;;;;;;;;;;5031663;28;20099;-87
2022/07/16 13:37:11;;;;;;;0.00;0.00;;;;;;;;;;5032434;28;20493;-85
2022/07/16 13:39:38;;;;;;;0.00;0.00;;;;;;;;;;5031643;28;20461;-85
2022/07/16 13:42:04;;;;;;;0.00;0.00;;;;;;;;;;5031075;28;20077;-88
2022/07/16 13:44:30;;;;;;;0.00;0.00;;;;;;;;;;5032785;28;20037;-86
2022/07/16 13:46:57;;;;;;;0.00;0.00;;;;;;;;;;5031049;28;20399;-86
2022/07/16 13:49:24;;;;;;;0.00;0.00;;;;;;;;;;5032732;28;20103;-86
2022/07/16 13:51:50;;;;;;;0.00;0.00;;;;;;;;;;5031133;28;20121;-86
2022/07/16 13:54:16;;;;;;;0.00;0.00;;;;;;;;;;5032509;28;20093;-86
2022/07/16 13:56:42;;;;;;;0.00;0.00;;;;;;;;;;5031170;28;20076;-85
2022/07/16 13:59:08;;;;;;;0.00;0.00;;;;;;;;;;5031218;28;20037;-85
2022/07/16 14:01:34;;;;;;;0.00;0.00;;;;;;;;;;5030976;28;20091;-86
2022/07/16 14:04:01;;;;;;;0.00;0.00;;;;;;;;;;5031293;28;20053;-88
2022/07/16 14:06:28;;;;;;;0.00;0.00;;;;;;;;;;5030988;28;20045;-88
2022/07/16 14:08:54;;;;;;;0.00;0.00;;;;;;;;;;5031229;28;20103;-88
2022/07/16 14:11:21;;;;;;;0.00;0.00;;;;;;;;;;5030923;28;20046;-87
2022/07/16 14:13:47;;;;;;;0.00;0.00;;;;;;;;;;5030745;28;20061;-87
2022/07/16 14:16:13;;;;;;;0.00;0.00;;;;;;;;;;5031141;28;20049;-89
2022/07/16 14:18:40;;;;;;;0.00;0.00;;;;;;;;;;5031130;28;20048;-88
2022/07/16 14:21:06;;;;;;;0.00;0.00;;;;;;;;;;5031050;28;20037;-87
2022/07/16 14:23:32;;;;;;;0.00;0.00;;;;;;;;;;5031032;28;20050;-88
2022/07/16 14:25:58;;;;;;;0.00;0.00;;;;;;;;;;5034853;28;20092;-89
2022/07/16 14:28:24;;;;;;;0.00;0.00;;;;;;;;;;5034458;28;20033;-87
2022/07/16 14:30:50;;;;;;;0.00;0.00;;;;;;;;;;5034499;28;20053;-89
2022/07/16 14:33:16;;;;;;;0.00;0.00;;;;;;;;;;5034346;28;20583;-88
2022/07/16 14:35:42;;;;;;;0.00;0.00;;;;;;;;;;5034487;28;20128;-88
2022/07/16 14:38:08;;;;;;;0.00;0.00;;;;;;;;;;5034355;28;20382;-88
2022/07/16 14:40:34;;;;;;;0.00;0.00;;;;;;;;;;5034276;28;20452;-87
2022/07/16 14:43:00;;;;;;;0.00;0.00;;;;;;;;;;5034095;28;20041;-88
2022/07/16 14:45:26;;;;;;;0.00;0.00;;;;;;;;;;5034717;28;20095;-88
2022/07/16 14:47:53;;;;;;;0.00;0.00;;;;;;;;;;5034069;28;20073;-89
2022/07/16 14:50:19;;;;;;;0.00;0.00;;;;;;;;;;5034102;28;20041;-87
2022/07/16 14:52:45;;;;;;;0.00;0.00;;;;;;;;;;5034600;28;20099;-88
2022/07/16 14:55:12;;;;;;;0.00;0.00;;;;;;;;;;5034524;28;20059;-88
2022/07/16 14:57:39;;;;;;;0.00;0.00;;;;;;;;;;5034270;28;20050;-90